Timeline UpdatesTrip UpdatesNews PostsPvt Posts♥♥Travel TipsAdmin PostsConv PostsFollowed PostsChat RequestsBlog PostsPNR Posts

Disclaimer
Search
 
 
Fri Dec 19, 2014 21:59:52 ISTHomeTrainsΣChainsAtlasPNRForumGalleryNewsFAQTripsMembersLoginFeedback
No Recent News for this Train
Other Trains in the News **new
Latest...
Train is cancelled on 16th dec
Tue Dec 16, 2014 (12:05PM)
⇐ Return Journey: Train# 12307

12308/Jodhpur-Howrah SF Express

Time-Table HAS CHANGED.
Dec 16 (12:05PM)
Change Departure Station:
Change Arrival Station:
Post a Train Travel TipPost a Train Travel Tip **new
Post a Comment/Question/Picture/VideoPost a Comment/Question/Picture/Video
Pantry/Catering
✓ Pantry Car Avbl
✓ Catering Avbl
RSA - Rake Sharing
Rake/Coach Composition
LOCO-SLR*-GS*-GS*-S13*-S12*-S11*-S10*-B3*-B4*-B2-B1-A1-PC-S9-S8-S7-S6-S5-S4-S3-S2-S1-GS-SLR; ; * markings indicate slip coaches from BKN which are attached at MTD.
Loco
Bgkt wdp - 4 :- Ju to Af ; Hwh...
Read more...
Wap -4 :- Af to Hwh
News    PNR    Forum    Time-Table    Availability    Fare Chart    Map    Arr/Dep History    Trips    Gallery    ΣChains    X/O    Timeline    
Travel Time: 9h 20m    7 halts    Distance: 551 km    Avg Speed: 59 km/hr
Type: SuperFast
Zone: ER/Eastern
Departs @ 20:30
Platform# 3
SMTWTFS
Jodhpur Junction/JU 
Arrives @ 05:50 +1 night
Platform# 2
SMTWTFS
Agra Fort/AF 

7 halts. 74 intermediate Stations between Jodhpur Junction and Agra Fort

Hide intermediate Stations  Show Old Time-Table

#TrkCodeStation NameX/OArrivesAvgDepartsAvgHaltPFDay#KmSpeedElevZoneAddress
1|==|JUJodhpur Junction (5)»  -20:30-310.070241mNWRJodhpur, Rajasthan
1.1|--|RKBRaikabagh Palace Junction (2)  20:32-20:32-  12.3 70237mNWRJodhpur, Rajasthan
1.2|--|JUCTJodhpur Cantt. (1)X  20:37-20:37-  18.1 70220mNWRJodhpur, Rajasthan
1.3|--|BNOBanar  20:42-20:42-  114.2 70213mNWRBanar, Rajasthan
1.4|--|JWLJajiwal  20:49-20:49-  122.5 70228mNWRJodhpur, Rajasthan
1.5|--|AASAsranadaX  20:57-20:57-  131.3 70251mNWRState Highway 58, Rajasthan
1.6|--|KSWKheri Salwa  21:04-21:04-  140.4 70269mNWRJajiwal, Rajasthan
1.7|--|PPRPipar Road JunctionX  21:10-21:10-  146.9 70272mNWRState Highway 58, Rajasthan
1.8|--|SWFSathin Road  21:17-21:17-  155.5 70284mNWRUMED, Rajasthan
1.9|--|UMEDUmed  21:26-21:26-  165.8 70308mNWRJodhpur, Rajasthan
1.10|--|KXGKharia Khangarh  21:35-21:35-  176.0 70310mNWRKharia Khangar, Rajasthan
1.11|--|GOTNGotan (3)  21:41-21:41-  183.1 70323mNWRGotan, Rajasthan
1.12|--|JOMJogi Magra (1)  21:49-21:49-  192.9 70335mNWRNagaur, Rajasthan
2|--|MTDMerta Road Junction (4)X21:58-22:20-22m--1103.380322mNWRPhalodi, Rajasthan
2.1|--|KQWKheduli (1)  22:32-22:32-  1118.7 80307mNWRRen, Rajasthan
2.2|--|RENRen  22:33-22:33-  1120.7 80307mNWRNagaur, Rajasthan
2.3|--|JACJalsu  22:43-22:43-  1134.4 80321mNWRNagaur, Rajasthan
2.4|--|JACNJalsu Nanak  22:48-22:48-  1140.0 80331mNWRREN, Rajasthan
3|--|DNADegana Junction (4)  22:53-22:56-3m--1147.387339mNWRDegana, Rajasthan
3.1|--|GCHGachhipura  23:06-23:06-  1162.4 87362mNWRNagaur, Rajasthan
3.2|--|BSRLBesroli  23:14-23:14-  1173.7 87378mNWRNagaur, Rajasthan
3.3|--|BOWBorawar  23:22-23:22-  1185.6 87403mNWRBesrol, Rajasthan
4|--|MKNMakrana Junction (2)  23:26-23:28-2m--1190.857423mNWRMakrana, Rajasthan
5|--|KMNCKuchaman CityX  23:43-23:45-2m--1204.951404mNWRPalari, Rajasthan
5.1|--|THMRThathana Mithri  23:51-23:51-  1209.7 51388mNWRNawa City, Rajasthan
5.2|--|NYKNaya Kharadia  23:56-23:56-  1214.0 51375mNWRMakrana, Rajasthan
5.3|--|NACNawa City  00:04-00:04-  2220.6 51390mNWRNawa, Rajasthan
5.4|--|GVMRGovindi MarwarX  00:14-00:14-  2229.8 51373mNWRSambhar Lake, Rajasthan
5.5|--|GAGudha (1)X  00:27-00:27-  2240.5 51365mNWRPhulera, Rajasthan
5.6|--|SBRSambhar Lake  00:36-00:36-  2248.2 51368mNWRSambhar, Rajasthan
5.7|==|FLPhulera Junction (5)X  00:45-00:45-  2255.3 51386mNWRPhulera, Rajasthan
5.8|==|HDAHirnoda  00:55-00:55-  2264.0 51400mNWRJaipur, Rajasthan
5.9|==|DHNDDhindaX  01:00-01:00-  2268.0 51386mNWRMDR 59, Rajasthan
5.10|==|JOBAsalpur JobnerX  01:06-01:06-  2273.7 51379mNWRJaipur, Rajasthan
5.11|==|BOBSBobas  01:15-01:15-  2281.1 51396mNWRJaipur, Rajasthan
5.12|==|SHNXSheo Singh Pura  01:23-01:23-  2288.0 51411mNWRJaipur, Rajasthan
5.13|==|DNKDhanakyaX  01:28-01:28-  2291.8 51418mNWRJaipur, Rajasthan
5.14|==|BDYKBindayaka  01:33-01:33-  2296.4 51411mNWRJaipur, Rajasthan
5.15|==|KKUKanakpura  01:40-01:40-  2301.5 51429mNWRJaipur, Rajasthan
6|==|JPJaipur Junction (7)X  01:50-02:10-20m12310.473434mNWRJaipur, Rajasthan
6.1|==|GADJJaipur Gandhinagar (2)  02:14-02:14-  2315.9 73426mNWRJaipur, Rajasthan
6.2|==|GTJTGetor Jagatpura (2)X  02:19-02:19-  2321.3 73389mNWRJaipur, Rajasthan
6.3|==|KWPKhatipura (2)  02:24-02:24-  2327.2 73364mNWRGandhinagar, Rajasthan
6.4|==|KUTKanauta (2)X  02:29-02:29-  2333.8 73350mNWRJaipur, Rajasthan
6.5|==|BAIBassi (3)  02:37-02:37-  2343.0 73352mNWRJaipur, Rajasthan
6.6|==|JHIRJhir (2)  02:42-02:42-  2349.8 73377mNWRKanauta, Rajasthan
6.7|==|BSKOBanskho (2)  02:44-02:44-  2352.5 73362mNWRJaipur, Rajasthan
6.8|==|JWJatwara (2)  02:50-02:50-  2359.9 73329mNWRDausa, Rajasthan
6.9|==|BNDNBhandana (2)X  02:54-02:54-  2364.6 73329mNWRBanskho, Rajasthan
6.10|==|DODausa (2)  03:00-03:00-  2371.9 73333mNWRDausa, Rajasthan
6.11|==|BAKBhan Kari (2)  03:09-03:09-  2382.6 73301mNWRDausa, Rajasthan
6.12|==|KVGMKolvagram (2)  03:14-03:14-  2389.2 73294mNWRBandikui, Rajasthan
6.13|==|ARNAArnia (2)  03:19-03:19-  2394.6 73288mNWRBandikui, Rajasthan
6.14|--|BKIBandikui Junction (6)  03:24-03:24-  2400.7 73283mNWRBandikui, Rajasthan
6.15|--|SHGNShri Ghasinagar (1)  03:36-03:36-  2415.9 73263mNCRBandikui, Rajasthan
6.16|--|BWBiwai (1)  03:40-03:40-  2420.0 73256mNCRBandikui, Rajasthan
6.17|--|BJRABhajera (1)  03:43-03:43-  2424.2 73253mNCRMandawar, Rajasthan
6.18|--|KPOKaranpura (1)  03:44-03:44-  2425.1 73252mNCRBandikui, Rajasthan
6.19|--|BUDABhuda (1)  03:46-03:46-  2427.7 73253mNCRKheril, Rajasthan
6.20|--|MURDMandawar Mahwa Road (1)  03:50-03:50-  2432.6 73242mNCRMandawar, Rajasthan
6.21|--|GOSGhosrana (1)  03:56-03:56-  2439.9 73230mNCRKheril, Rajasthan
6.22|--|DTFDantla (1)  04:01-04:01-  2446.2 73224mNCRDantia, Rajasthan
6.23|--|KLKherli (1)  04:06-04:06-  2452.7 73219mNCRKherli, Rajasthan
6.24|--|TBLTarchhera Baraoliran (1)  04:13-04:13-  2460.7 73210mNCRTalchherra, Rajasthan
6.25|--|NBINadbai (1)  04:20-04:20-  2469.0 73203mNCRNadbai, Rajasthan
6.26|--|PPEAPaprera (1)  04:28-04:28-  2479.2 73187mNCRNadbai, Rajasthan
6.27|--|HKHelak (1)  04:33-04:33-  2485.7 73183mNCRBharatpur, Rajasthan
7|--|BTEBharatpur Junction (5)  04:43-04:45-2m--2497.582174mWCRBharatpur, Rajasthan
7.1|--|NHBNoh Bachhamdi (1)  04:50-04:50-  2504.2 82174mNCRBharatpur, Rajasthan
7.2|--|IKIkran (1)  04:54-04:54-  2509.8 82171mNCRBharatpur, Rajasthan
7.3|--|CIKChiksana (1)  04:58-04:58-  2515.1 82177mNCRBharatpur, Rajasthan
8|--|AHAchhnera Junction (3)  05:05-05:07-2m--2524.836170mNCRAgra District, Uttar Pradesh
8.1|--|RAIRaibha (1)X  05:15-05:15-  2529.5 36171mNCRBichpuri, Uttar Pradesh
8.2|--|BCPBichpuri (1)X  05:33-05:33-  2540.3 36176mNCRAgra District, Uttar Pradesh
8.3|--|IDHIdgah Agra Junction (3)  05:46-05:46-  2548.7 36168mNCRAgra, Uttar Pradesh
9|--|AFAgra Fort (3)•X05:50-06:15-25m22550.948170mNCRRakabganj, Uttar Pradesh
9.1/-=/JABYamuna Bridge Agra (3)X  06:18-06:18-  2553.4 48168mNCRAgra, Uttar Pradesh
9.2/==/CHLRChhalesar (2)X  06:25-06:25-  2559.1 48166mNCRDistrict Agra, Uttar Pradesh
9.3/==/KBPKuberpur (2)O  06:30-06:30-  2563.2 48170mNCRNational Highway 2, Uttar Pradesh
9.4/==/ETUEEtmadpur (3)  06:39-06:39-  2570.0 48166mNCREtmadpur, Uttar Pradesh
9.5/==/TDLTundla Junction (5)X  07:35 06:44-07:38 06:44-  2573.8 48167mNCRDistt.Firozabad, Uttar Pradesh
9.6/==/HNGHirangaon (2)X  06:54-06:54-  2582.6 48166mNCRNational Highway 2, Uttar Pradesh
9.7/==/FZDFirozabad (4)X  07:04-07:04-  2590.4 48164mNCRFirozabad, Uttar Pradesh
9.8/==/MNRMakkhanpur (2)XO  07:17-07:17-  2600.3 48166mNCRNational Highway 2, Uttar Pradesh
9.9/==/SKBShikohabad Junction (4)X  07:29-07:29-  2610.3 48166mNCRDistrict Firozabad, Uttar Pradesh
9.10/==/KAAKaurara (3)X  07:43-07:43-  2621.2 48160mNCRFirozabad Distt, Uttar Pradesh
9.11/==/BDNBhadan (2)  07:54-07:54-  2630.2 48160mNCRFirozabad, Uttar Pradesh
9.12/==/BBLBalrai (3)X  08:07-08:07-  2641.0 48157mNCRBalrai, Uttar Pradesh
9.13/==/JGRJaswantnagar (2)  08:18-08:18-  2649.7 48154mNCRJaswantnagar, Uttar Pradesh
9.14/==/SBSarai Bhopat (2)  08:28-08:28-  2657.3 48151mNCREtawah(05688-1072), Uttar Pradesh
10/==/ETWEtawah (5)X  08:38-08:40-2m32665.762154mNCRDistt. Etawah, Uttar Pradesh
10.1/==/EKLEkdil (2)  08:49-08:49-  2675.4 62150mNCRSarai Ikdil, Uttar Pradesh
10.2/==/BNTBharthana (3)X  08:59-08:59-  2685.5 62147mNCRBharthana, Uttar Pradesh
10.3/==/SHWSamhon (2)  09:09-09:09-  2696.0 62144mNCRSamahon, Uttar Pradesh
10.4/==/GHSRGhasara Halt (1)X  09:13-09:13-  2699.6 62146mNCRPhaphund, Uttar Pradesh
10.5/==/ULDAchalda (3)X  09:18-09:18-  2705.1 62147mNCRDist. Auraiya(05688-1072), Uttar Pradesh
10.6/==/PATAPata (3)X  09:26-09:26-  2713.4 62143mNCRPhaphund, Uttar Pradesh
10.7/==/PHDPhaphund (4)  09:34-09:34-  2721.8 62146mNCRdist. Auraiya, Uttar Pradesh
10.8/==/KNSKanchausi (2)X  09:43-09:43-  2730.8 62143mNCRState Highway 21, Uttar Pradesh
10.9/==/PJYPara Jani Halt (1)  09:48-09:48-  2735.8 62139mNCRPara Jani, Uttar Pradesh
10.10/==/JJKJhinjhak (3)  09:54-09:54-  2741.7 62140mNCRAuraiya, Uttar Pradesh
10.11/==/AAPAmbiapur  10:04-10:04-  2751.9 62140mNCRJhinjhak, Uttar Pradesh
10.12/==/RURARura (4)  10:12-10:12-  2760.7 62137mNCRJhinjhak, Uttar Pradesh
10.13/==/RMWRoshan Mau  10:19-10:19-  2768.4 62135mNCRkanpur rural, Uttar Pradesh
10.14/==/MTOMaitha  10:23-10:23-  2772.4 62235mNCRKanpur Rural, Uttar Pradesh
10.15/==/BPUBhaupurX  10:33-10:33-  2782.3 62133mNCRKANPUR Dehat-209 307, Uttar Pradesh
10.16/==/PNKPanki (3)  10:44-10:44-  2793.5 62129mNCRKANPUR-208 020, Uttar Pradesh
10.17/==/GOYGovindpuri Junction (2)  10:51-10:51-  2801.2 62129mNCRKANPUR-208 006, Uttar Pradesh
10.18/==/CPNLKanpur C Panel  10:52-10:52-  2801.6 62127mNCRKanpur, Uttar Pradesh
10.19/==/CNJOJuhi Outer Cabin  10:52-10:52-  2802.2 62131mNCRKanpur, Uttar Pradesh
10.20/==/GMCKanpur Goods Marshalling Yard  10:54-10:54-  2803.8 62128mNCRKanpur-208 014, Uttar Pradesh
11/==/CNBKanpur Central (10)X  10:55-11:10-15m72805.076128mNCRKANPUR-208 001, Uttar Pradesh
11.1/==/CNBIChandari (2)  11:14-11:14-  2809.6 76125mNCRKanpur Cantt, Uttar Pradesh
11.2/==/CHKChakeri (2)  11:19-11:19-  2816.4 76126mNCRKANPUR-208 008, Uttar Pradesh
11.3/==/RXMRooma (2)  11:23-11:23-  2821.0 76125mNCRKANPUR-208 008, Uttar Pradesh
11.4/==/SSLSirsaul (1)X  11:28-11:28-  2827.6 76125mNCRKANPUR-209 402, Uttar Pradesh
11.5/==/PMPRPrempurX  11:33-11:33-  2833.7 76125mNCRNational Highway 2, Uttar Pradesh
11.6/==/KBNKarbigwanX  11:37-11:37-  2839.0 76121mNCRFatehpur, Uttar Pradesh
11.7/==/AUNGAungX  11:42-11:42-  2845.4 76123mNCRNational Highway 2, Uttar Pradesh
11.8/==/BKOBindki Road  11:46-11:46-  2851.3 76124mNCRFatehpur, Uttar Pradesh
11.9/==/KSQKanspur Gugauli  11:53-11:53-  2859.3 76124mNCRNational Highway 2, Uttar Pradesh
11.10/==/MWHMalwan (2)  11:58-11:58-  2866.5 76122mNCRFatehpur, Uttar Pradesh
11.11/==/KKSKurasti Kalan (1)  12:05-12:05-  2875.6 76119mNCRJoniha Rd, Uttar Pradesh
12/==/FTPFatehpur (3)  12:11-12:13-2m--2882.665120mNCRFatehpur, Uttar Pradesh
12.1/==/RAMARamva  12:18-12:18-  2888.5 65116mNCRforcing detours between Kanpur and Varanasi, Uttar Pradesh
12.2/==/FYZFaizullapurX  12:23-12:23-  2893.7 65115mNCRFaizullapur, Uttar Pradesh
12.3/==/RUBRasulabadX  12:31-12:31-  2902.8 65118mNCRRasulabad, Uttar Pradesh
12.4/==/SNIESath NarainiX  12:38-12:38-  2909.8 65114mNCRNational Highway 2, Uttar Pradesh
12.5/==/KGAKhaga (3)X  12:45-12:45-  2917.3 65114mNCRFatehpur, Uttar Pradesh
12.6/==/KTCEKatoghan  12:51-12:51-  2924.2 65109mNCRNational Highway 2, Uttar Pradesh
12.7/==/KUWKanwarX  12:57-12:57-  2930.3 65110mNCRNational Highway 2, Uttar Pradesh
12.8/==/ASCEAthsarai  13:02-13:02-  2935.7 65107mNCRAthsarai, Uttar Pradesh
12.9/==/SROSirathu (2)X  13:08-13:08-  2942.2 65109mNCRSirathu, Uttar Pradesh
12.10/==/SJTShujaatpur  13:17-13:17-  2952.0 65107mNCRNational Highway 2, Uttar Pradesh
12.11/==/BDNPBidanpurX  13:22-13:22-  2958.2 65106mNCRBidanpur, Uttar Pradesh
12.12/==/BREBharwari  13:26-13:26-  2962.3 65108mNCRBharwari, Uttar Pradesh
12.13/==/MNJManoharGanj  13:33-13:33-  2970.1 65104mNCRNational Highway 2, Uttar Pradesh
12.14/==/SYWNSaiyid Sarawan  13:40-13:40-  2977.5 65106mNCR212203 ?, Uttar Pradesh
12.15/==/MREManauri  13:44-13:44-  2982.1 65105mNCRSabderganj-Fatehpur Rd, Uttar Pradesh
12.16/==/BMUBamhrauli  13:52-13:52-  2990.6 65102mNCRAllahabad, Uttar Pradesh
12.17/==/SFGSubedarGanj (3)  13:57-13:57-  2995.6 65100mNCRAllahabad, Uttar Pradesh
13/==/ALDAllahabad Junction (10)  14:00-14:10-10m22999.379100mNCRAllahabad 211003, Uttar Pradesh
13.1/==/NYNNaini Junction (4)  14:16-14:16-  21006.8 7998mNCRAllahabad, Uttar Pradesh
13.2/==/COIChheoki Junction (3)  14:17-14:17-  21008.5 7996mNCRDist.-Allahabad, Uttar Pradesh
13.3/==/KCNKarchanaX  14:24-14:24-  21017.4 7994mNCRKarchana, Uttar Pradesh
13.4/==/BEPBheerpurX  14:31-14:31-  21026.6 7994mNCRNH 76, Uttar Pradesh
13.5/==/MJAMeja Road (4)  14:39-14:39-  21037.8 7994mNCRDistrict Allahabad, Uttar Pradesh
13.6/==/UNDUnchdih  14:45-14:45-  21046.0 7994mNCRUnchdih, Uttar Pradesh
13.7/==/MNFManda Road  14:52-14:52-  21054.0 7993mNCRNH 76, Uttar Pradesh
13.8/==/JIAJigna (1)  14:58-14:58-  21062.4 7994mNCRNational Highway 76, Uttar Pradesh
13.9/==/GAEGaipura (4)  15:03-15:03-  21069.2 7986mNCRGaipura, Uttar Pradesh
13.10/==/BEOBirohe  15:09-15:09-  21076.8 7983mNCRNational Highway 76, Uttar Pradesh
13.11/==/BDLVindhyachal (3)15:12-15:12-  21081.6 7988mNCRMirzapur, Uttar Pradesh
14/==/MZPMirzapur (3)X  15:18-15:20-2m--21088.94288mNCRMirzapur, Uttar Pradesh
14.1/==/JHGJhinguraX  15:32-15:32-  21097.2 4285mNCRNational Highway 7, Uttar Pradesh
14.2/==/PREPahara (3)  15:43-15:43-  21104.7 4287mNCRNational Highway 7, Uttar Pradesh
14.3/==/DAPDagmagpur  15:54-15:54-  21112.8 4288mNCRDagmagpur, Uttar Pradesh
14.4/==/CARChunar Junction (5)X  16:05-16:05-  21120.2 4285mNCRChunar Junction, Uttar Pradesh
14.5/==/KYTKailahat (4)X  16:18-16:18-  21129.8 4283mNCRKailahat, Uttar Pradesh
14.6/==/ARWAhraura Road (4)  16:30-16:30-  21138.3 4285mNCRDist. Mirzapur - 231305, Uttar Pradesh
14.7/==/JEPJeonathpur (2)  16:39-16:39-  21144.2 4283mNCRVaranasi, Uttar Pradesh
14.8/==/NEWCNew West Cabin  16:48-16:48-  21150.8 4280mECRMughal Sarai, Uttar Pradesh
15/==/MGSMughal Sarai Junction (8)X  16:50-17:05-15m121152.18283mECRDistt: Chandauli Pin 232101, Uttar Pradesh
15.1/==/FOCMFlyover Cabin Mughal Sarai  17:10-17:10-  21158.5 8280mECRChandauli Mjhwr, Uttar Pradesh
15.2/==/GAQGanj Khawaja (3)XO  17:11-17:11-  21160.9 8279mECRGanj Khwaja, Uttar Pradesh
15.3/==/CDMRChandauli Majhwar (5)X  17:18-17:18-  21169.5 8279mECRNational Highway 2, Uttar Pradesh
15.4/==/SYJSaidraja (5)X  17:24-17:24-  21177.8 8280mECRSaiyedraja, Uttar Pradesh
15.5/==/KMSKaramnasa (4)  17:30-17:30-  21186.1 8278mECRNational Highway 2, Uttar Pradesh
15.6/==/DCXDhanaichha (2)  17:34-17:34-  21192.3 8275mECRNational Highway 2, Bihar
15.7/==/DGODurgautiO  17:38-17:38-  21197.7 8278mECRDistt Kaimur, Bihar
16/==/BBUBhabua Road (4)  17:44 17:45-17:46-2 1m--21206.68780mECR06187-222222, Bihar
16.1/==/MTGEMuthaniX  17:50-17:50-  21212.1 8783mECRNational Highway 2, Bihar
16.2/==/PSEPusauli  17:55-17:55-  21219.9 8786mECRDistt: Rohtas, Bihar
16.3/==/KTQKudra (2)  18:01-18:01-  21229.0 8792mECRKudra, Bihar
16.4/==/KVDKhurmabad RoadO  18:06-18:06-  21235.8 8793mECRKhurmabad, Bihar
16.5/==/SSGShiu Sagar RoadX  18:10-18:10-  21240.6 8799mECRShiu Sagar Rd, Bihar
16.6/==/KMGEKumahu  18:14-18:14-  21246.3 87101mECRKamahu, Bihar
17/==/SSMSasaram Junction (4)X  18:18 18:19-18:20-2 1m--21254.259111mECR06184-222051, Bihar
17.1/==/KWDKarwandia  18:27-18:27-  21260.7 59112mECRKarwandiya, Bihar
17.2/==/PHEPahaleja Halt  18:33-18:33-  21267.4 59112mECRPahaleja, Bihar
18/==/DOSDehri On Sone (6)  18:38-18:40-2m--21271.871114mECRRohtas(06184-253154), Bihar
18.1/==/ADSRADSRO  18:41-18:41-  21272.8 71113mECRDehri, Bihar
18.2/==/SEBSon Nagar Junction (4)  18:45-18:45-  21277.6 71110mECRBarun, Bihar
18.3/==/CPBHChiraila  18:50-18:50-  21283.4 71104mECRBarun, Bihar
19/==/AUBRAnugraha Narayan Road (4)  18:53 18:54-18:55-2 1m--21288.553104mECR06186-285271, Bihar
19.1/==/PESPhesarX  19:05-19:05-  21297.4 53104mECRpheshar, Bihar
19.2/==/BHKHBaghoi KusaX  19:10-19:10-  21301.9 5398mECRbel Rd, Bihar
19.3/==/JHNJakhimX  19:18-19:18-  21308.5 5393mECRbel Rd, Bihar
19.4/==/DORDDeo Road  19:22-19:22-  21312.2 53102mECRMaluk Bigha, Bihar
19.5/==/RFJRafiGanj (4)X  19:30-19:30-  21319.3 53102mECRRafiganj, Bihar
19.6/==/IMGEIsmailpurX  19:41-19:41-  21328.6 53114mECRState Highway 69, Bihar
19.7/==/GRRUGuraru  19:49-19:49-  21335.4 53114mECRGuraru, Bihar
19.8/==/PRYParaiya  19:55-19:55-  21341.4 53111mECRparaiya station Rd, Bihar
19.9/==/KSTAKasthaX  20:03-20:03-  21348.5 53113mECRGaya, Bihar
19.10/==/WCBGaya West Cabin  20:09-20:09-  21353.6 53111mECRGaya, Bihar
20/==/GAYAGaya Junction (9)X  20:13-20:18-5m221356.969117mECR0631-2220283, Bihar
20.1/==/SICYShaheed Ishwar Chowdhary Halt (2)  20:21-20:21-  21360.6 69112mECRManpur, Bihar
20.2/==/MPOManpur Junction (4)X  20:23-20:23-  21362.2 69113mECRGaya, Bihar
20.3/==/BNFBandhuaX  20:29-20:29-  21369.4 69124mECRState Highway 70, Bihar
20.4/==/TKNTankuppa  20:35-20:35-  21377.0 69127mECRState Highway 70, Bihar
20.5/==/BNSLBansinala Halt  20:41-20:41-  21383.1 69135mECRBansinala, Bihar
20.6/==/PRPPaharpurX  20:46-20:46-  21389.3 69150mECRGaya, Bihar
20.7/==/GAPGurpa (4)  20:56-20:56-  21400.9 69192mECRLodhwe, Bihar
20.8/==/YGMYadugram Block Hut  20:59-20:59-  21404.3 69210mECRYadugram Block Hut, Jharkhand
20.9/==/BSCPBaskatwa B. H.  21:03-21:03-  21409.1 69273mECRMurli, Bihar
20.10/==/NGYNath Ganj  21:04-21:04-  21410.5 69284mECRMurli, Bihar
20.11/==/DLWDilwa (2)  21:10-21:10-  21416.7 69346mECRNational Highway 31, Bihar
20.12/==/LBZLalbag Block Hut  21:14-21:14-  21421.2 69389mECRState Highway 70, Bihar
20.13/==/GJDGujhandi (4)  21:15-21:15-  21423.3 69386mECRNational Highway 31, Jharkhand
21/==/KQRKoderma Junction (7)XO  21:24-21:26-2m--21433.375399mECR06534-222410 Koderma, Jharkhand
21.1/==/LRBLarabadX  21:30-21:30-  21437.9 75393mECRJhumri Telaiya, Jharkhand
21.2/==/HREHirodih (4)O  21:33-21:33-  21442.5 75374mECRJhumri Telaiya, Jharkhand
21.3/==/SMNDSarmatanr (4)X  21:39-21:39-  21450.2 75351mECRKoderma, Jharkhand
21.4/==/YDDYadudih (2)  21:43-21:43-  21454.2 75352mECRNational Highway 2, Jharkhand
21.5/==/PSBParsabad (4)  21:47-21:47-  21459.7 75346mECRNational Highway 2, Jharkhand
21.6/==/DSMEDasara (2)  21:52-21:52-  21466.2 75342mECRSariya - Parsiya Road, Jharkhand
21.7/==/CBHChaube (4)  21:56-21:56-  21471.1 75325mECRParsabad, Jharkhand
21.8/==/KSHRKeshwariX  22:00-22:00-  21475.9 75313mECRMandramo, Jharkhand
21.9/==/HZDHazaribagh Road (4)  22:04-22:04-  21481.6 75330mECRHazaribagh, Jharkhand
21.10/==/CCKChichaki (4)  22:08-22:08-  21486.7 75308mECRNational Highway 2, Jharkhand
21.11/==/GRBHGarea Bihar  22:10-22:10-  21488.6 75315mECRSariya - Parsiya Rd, Jharkhand
21.12/==/CDBChaudhribandh (4)  22:12-22:12-  21491.4 75337mECRMaipatoli, Jharkhand
21.13/==/CEMEChegroX  22:16-22:16-  21495.7 75333mECRBeko, Jharkhand
22/==/PNMEParasnath (5)X  22:24 22:26-22:26 22:31-2 5m221508.742282mECRGiridih 06532-233419, Jharkhand
22.1/==/NMGNimiaghat (4)  22:42-22:42-  21516.3 42268mECRNational Highway 2, Jharkhand
22.2/==/BLMEBholldih (2)  22:50-22:50-  21521.9 42241mECRGomoh, Jharkhand
22.3/==/GMONetaji SC Bose Gomoh Junction (6)X  22:57-22:57-  21526.8 42239mECRGomoh, Jharkhand
22.4/==/MRQMatari (3)  23:11-23:11-  21536.2 42246mECRDhanbad, Jharkhand
22.5/==/NPJENichitpur (2)X  23:18-23:18-  21541.5 42224mECRKatras, Jharkhand
22.6/==/TETTetulmari (2)  23:27-23:27-  21547.4 42225mECRTetulmari, Jharkhand
22.7/==/BHNBhuli (2)X  23:34-23:34-  21552.7 42230mECRKusunda, Jharkhand
23/==/DHNDhanbad Junction (9)X  23:40-23:50-10m221556.561235mECR2319801. Div. HQ ECR, Jharkhand
23.1/==/DOKMDokra Halt (2)  23:55-23:55-  21561.8 61211mECRDokra, Jharkhand
23.2/==/PKAPradhankhunta Junction (3)  23:59-23:59-  21565.6 61202mECRDhanbad, Jharkhand
23.3/==/CAMChhota Ambana (3)  00:05-00:05-  31571.8 61200mERDhanbad, Jharkhand
23.4/==/KAOKalubathan (2)X  00:14-00:14-  31580.8 61195mERDhanbad, Jharkhand
23.5/==/TNWThapar Nagar (2)X  00:18-00:18-  31585.1 61144mERDhanbad, Jharkhand
23.6/==/MMUMugma (3)  00:23-00:23-  31590.4 61135mERNational Highway 2, Jharkhand
23.7/==/KMMEKumardubi (2)  00:28-00:28-  31595.0 61135mERDhanbad - 828203(06540-222077), Jharkhand
23.8/==/BRRBarakar (2)X  00:30-00:30-  31597.5 61129mERDist. Bardhaman, West Bengal
23.9/==/ULTKulti (3)  00:33-00:33-  31600.8 61148mERdist - bardhaman, West Bengal
23.10/==/STNSitarampur Junction (5)X  00:38-00:38-  31606.0 61139mERG T Rd Before Asansol, West Bengal
23.11/==/BCQBarachak Junction (4)  00:42-00:42-  31609.7 61127mERdist - bardhaman, West Bengal
24/==/ASNAsansol Junction (7)X  00:47-00:52-5m331614.772113mERDist - Bardhaman, West Bengal
24.1/==/ASNEAsansol East  00:53-00:53-  31616.3 72110mERAsansol, West Bengal
24.2/==/KPKKalipahari (4)X  00:56-00:56-  31620.1 72106mERBardhaman distt, West Bengal
24.3/==/NMCNimchaXO  01:04-01:04-  31629.0 72106mERRaniganj, West Bengal
24.4/==/RNGRaniGanj (4)  01:07-01:07-  31632.9 7292mERRaniganj, West Bengal
24.5/==/BQTBakhtarnagar  01:11-01:11-  31637.4 7287mERKajora, West Bengal
24.6/==/UDLWAndal West CabinX  01:12-01:12-  31638.4 7283mERAndal, Jharkhand
24.7/==/UDLAndal Junction (6)X  01:13-01:13-  31640.2 7286mERAndal, West Bengal
24.8/==/UDLEAndal East Cabin  01:15-01:15-  31642.2 7280mERAndal, West Bengal
24.9/==/EOCAndal East Outer Cabin  01:15-01:15-  31642.6 7280mERAndal, West Bengal
24.10/==/POLPinjrapolX  01:18-01:18-  31646.4 7280mERDurgapur, West Bengal
24.11/==/OYRWaria (4)  01:20-01:20-  31648.3 7278mERDurgapur, West Bengal
24.12/==/DCOPDurgapur Coke Oven PlantX  01:25-01:25-  31654.7 7278mERDurgapur, West Bengal
24.13/==/DGRDurgapur (5)  01:27-01:27-  31657.2 7271mERDurgapur, West Bengal
24.14/==/RBHRajbandh (4)X  01:34-01:34-  31665.0 7272mERRajbandh Rail Station Rd, West Bengal
24.15/==/PANPanagarh (4)X  01:40-01:40-  31672.8 7270mERKaksa, West Bengal
24.16/==/MNAEMankar (4)X  01:49-01:49-  31683.0 7265mERMankur, West Bengal
24.17/==/PAJParaj (4)  01:56-01:56-  31691.3 7252mERNational Highway 2, West Bengal
24.18/==/GLIGalsi (4)X  02:01-02:01-  31697.7 7247mERBardhaman, West Bengal
24.19/==/INCIIshan Chandi Halt (2)  02:06-02:06-  31704.3 7243mERDist - Bardhaman, West Bengal
24.20/==/KANKhana Junction (5)X  02:09-02:09-  31707.6 7242mERDist - Bardhaman, West Bengal
24.21/==/TITTalit (4)  02:14-02:14-  31713.1 7237mERDist - Bardhaman, West Bengal
25/==/BWNBarddhaman Junction (8)  02:20-02:22-2m431720.75834mERDist - Barddhaman, West Bengal
25.1/==/GRPGangpur (4)  02:29-02:29-  31727.7 5830mERGangpur, West Bengal
25.2/==/SKGSaktigarh (7)  02:35-02:35-  31732.8 5828mERSaktigarh, West Bengal
25.3/==/PRAEPalla Road (4)  02:40-02:40-  31737.6 5830mERDuragapur Expressway (NH 2), West Bengal
25.4/==/CHCChanchai (3)  02:42-02:42-  31740.4 5825mERChanchai, West Bengal
25.5/==/MSAEMasagram Junction (6)  02:46-02:46-  31743.6 5825mERDist - bardhaman, West Bengal
25.6/==/NBAENabagram (3)  02:49-02:49-  31746.7 5822mERDattapur, West Bengal
25.7/==/JRAEJaugram (3)  02:53-02:53-  31750.9 5823mERAstai, West Bengal
25.8/==/JPQJhapandanga (3)  02:55-02:55-  31752.9 5821mERBurdwan., West Bengal
25.9/==/GRAEGurap (4)  03:00-03:00-  31757.8 5820mERMagra-Gurup Road, West Bengal
25.10/==/HIHHajigarh (3)  03:03-03:03-  31760.0 5820mERDurgapur Expressway, West Bengal
25.11/==/CRAECheragram Block Hut  03:04-03:04-  31761.5 5816mERDurgapur Expy, West Bengal
25.12/==/SHBCSibaichandi (3)  03:07-03:07-  31763.8 5816mERBainchi-Dhaniakali Road, West Bengal
25.13/==/DNHLDhaniakhali Halt (3)  03:10-03:10-  31766.7 5814mERChunchura-Dhaniakali Rd, West Bengal
25.14/==/BMAEBelmuri (3)  03:12-03:12-  31768.8 5815mERBelmuri Dhaniakhali Rd, West Bengal
25.15/==/PBZPorabazar (3)  03:14-03:14-  31770.8 5814mERPorabazar Makalpur Rd, West Bengal
25.16/==/CDAEChandanpur (4)  03:18-03:18-  31775.1 5815mERDist - hooghly, West Bengal
25.17/==/MDSEMadhu Sudanpur (3)  03:23-03:23-  31779.5 5811mERState Highway 2, West Bengal
25.18/==/KQLSKamarkundu (lower) (3)  03:26-03:26-  31782.3 5812mERKamarkundu, West Bengal
25.19/==/KQUKamarkundu (5)  03:26-03:26-  31782.4 5813mERDist - Hooghly, West Bengal
25.20/==/BLAEBalarambati (3)  03:28-03:28-  31784.1 5816mERState Highway 2, West Bengal
25.21/==/MBEMirzapur Bankipur (3)  03:30-03:30-  31786.1 5816mERSingpara Rd, West Bengal
25.22/==/BRPABarui Para (4)  03:33-03:33-  31789.3 5812mER31 no Rd, West Bengal
25.23/==/BPAEBegumpur (3)  03:37-03:37-  31793.1 5811mERChanditala-Sreerampore Rd, West Bengal
25.24/==/JOXJanai Road (4)  03:39-03:39-  31795.0 588mERJanai Rd Railway Station, West Bengal
25.25/==/GBRAGobra (3)  03:43-03:43-  31798.3 586mERStation Pally, West Bengal
25.26/==/DKAEDankuni Junction (5)  03:45-03:45-  31800.6 587mERDist - Hooghly, West Bengal
25.27/==/BZLBelanagar (2)  03:49-03:49-  31804.3 588mERNational Highway 34, West Bengal
25.28/==/BLYBally (6)  03:51-03:51-  31806.8 588mERDist - Howrah, West Bengal
25.29/==/BEQBelur (5)  03:54-03:54-  31808.9 588mERHowrah, West Bengal
25.30/==/LLHLiluah (5)  03:55-03:55-  31810.6 5810mERHowrah, West Bengal
25.31/==/SYAELiluah Sorting  03:57-03:57-  31811.8 585mERLiluah Sorting, West Bengal
25.32/==/HWHGHowrah Goods Cabin  03:59-03:59-  31814.1 586mERHowrah, West Bengal
26/==/HWHKolkata Howrah Junction (23)  04:00--931815.1-10mERHowrah 711101, West Bengal
Scroll to Top
Scroll to Bottom


Go to Mobile site